sensor_id;sensor_type;location;lat;lon;timestamp;P1;durP1;ratioP1;P2;durP2;ratioP2
71769;SDS011;66386;52.122;5.420;2023-02-02T00:01:57;18.13;;;2.20;;
71769;SDS011;66386;52.122;5.420;2023-02-02T00:04:26;11.70;;;1.73;;
71769;SDS011;66386;52.122;5.420;2023-02-02T00:06:58;9.07;;;1.27;;
71769;SDS011;66386;52.122;5.420;2023-02-02T00:09:25;13.00;;;1.25;;
71769;SDS011;66386;52.122;5.420;2023-02-02T00:11:57;10.13;;;1.03;;
71769;SDS011;66386;52.122;5.420;2023-02-02T00:14:24;13.88;;;1.40;;
71769;SDS011;66386;52.122;5.420;2023-02-02T00:16:52;13.40;;;1.45;;
71769;SDS011;66386;52.122;5.420;2023-02-02T00:19:21;10.75;;;1.73;;
71769;SDS011;66386;52.122;5.420;2023-02-02T00:21:52;11.88;;;1.65;;
71769;SDS011;66386;52.122;5.420;2023-02-02T00:24:19;13.80;;;1.63;;
71769;SDS011;66386;52.122;5.420;2023-02-02T00:26:48;17.50;;;1.80;;
71769;SDS011;66386;52.122;5.420;2023-02-02T00:29:18;15.88;;;1.70;;
71769;SDS011;66386;52.122;5.420;2023-02-02T00:31:46;14.40;;;1.42;;
71769;SDS011;66386;52.122;5.420;2023-02-02T00:34:14;13.10;;;1.27;;
71769;SDS011;66386;52.122;5.420;2023-02-02T00:36:41;8.17;;;1.20;;
71769;SDS011;66386;52.122;5.420;2023-02-02T00:39:09;11.27;;;0.85;;
71769;SDS011;66386;52.122;5.420;2023-02-02T00:41:39;14.43;;;1.92;;
71769;SDS011;66386;52.122;5.420;2023-02-02T00:44:05;15.45;;;1.90;;
71769;SDS011;66386;52.122;5.420;2023-02-02T00:46:50;15.75;;;1.58;;
71769;SDS011;66386;52.122;5.420;2023-02-02T00:49:17;12.93;;;1.83;;
71769;SDS011;66386;52.122;5.420;2023-02-02T00:51:44;16.90;;;1.60;;
71769;SDS011;66386;52.122;5.420;2023-02-02T00:54:10;7.43;;;1.00;;
71769;SDS011;66386;52.122;5.420;2023-02-02T00:56:37;14.77;;;1.90;;
71769;SDS011;66386;52.122;5.420;2023-02-02T00:59:03;7.05;;;1.20;;
71769;SDS011;66386;52.122;5.420;2023-02-02T01:01:29;11.27;;;1.20;;
71769;SDS011;66386;52.122;5.420;2023-02-02T01:03:56;12.45;;;1.55;;
71769;SDS011;66386;52.122;5.420;2023-02-02T01:06:24;13.38;;;1.70;;
71769;SDS011;66386;52.122;5.420;2023-02-02T01:08:50;7.55;;;1.20;;
71769;SDS011;66386;52.122;5.420;2023-02-02T01:11:17;12.70;;;1.33;;
71769;SDS011;66386;52.122;5.420;2023-02-02T01:13:44;10.33;;;1.90;;
71769;SDS011;66386;52.122;5.420;2023-02-02T01:16:10;7.65;;;1.20;;
71769;SDS011;66386;52.122;5.420;2023-02-02T01:18:37;12.40;;;1.08;;
71769;SDS011;66386;52.122;5.420;2023-02-02T01:21:08;6.63;;;1.02;;
71769;SDS011;66386;52.122;5.420;2023-02-02T01:23:36;7.78;;;0.80;;
71769;SDS011;66386;52.122;5.420;2023-02-02T01:26:05;4.73;;;0.70;;
71769;SDS011;66386;52.122;5.420;2023-02-02T01:28:34;12.05;;;0.75;;
71769;SDS011;66386;52.122;5.420;2023-02-02T01:31:11;10.55;;;0.60;;
71769;SDS011;66386;52.122;5.420;2023-02-02T01:33:40;4.65;;;0.70;;
71769;SDS011;66386;52.122;5.420;2023-02-02T01:36:10;3.30;;;0.40;;
71769;SDS011;66386;52.122;5.420;2023-02-02T01:38:38;9.97;;;1.00;;
71769;SDS011;66386;52.122;5.420;2023-02-02T01:41:06;2.67;;;0.40;;
71769;SDS011;66386;52.122;5.420;2023-02-02T01:46:10;2.92;;;0.30;;
71769;SDS011;66386;52.122;5.420;2023-02-02T01:48:37;5.95;;;0.63;;
71769;SDS011;66386;52.122;5.420;2023-02-02T01:51:08;4.97;;;0.60;;
71769;SDS011;66386;52.122;5.420;2023-02-02T01:53:38;5.75;;;0.75;;
71769;SDS011;66386;52.122;5.420;2023-02-02T01:56:07;8.48;;;0.63;;
71769;SDS011;66386;52.122;5.420;2023-02-02T01:58:38;2.95;;;0.30;;
71769;SDS011;66386;52.122;5.420;2023-02-02T02:01:07;9.18;;;0.63;;
71769;SDS011;66386;52.122;5.420;2023-02-02T02:03:35;5.43;;;0.40;;
71769;SDS011;66386;52.122;5.420;2023-02-02T02:06:03;6.40;;;1.00;;
71769;SDS011;66386;52.122;5.420;2023-02-02T02:08:34;7.03;;;0.50;;
71769;SDS011;66386;52.122;5.420;2023-02-02T02:11:05;4.78;;;0.70;;
71769;SDS011;66386;52.122;5.420;2023-02-02T02:13:33;4.57;;;0.50;;
71769;SDS011;66386;52.122;5.420;2023-02-02T02:16:23;4.17;;;0.63;;
71769;SDS011;66386;52.122;5.420;2023-02-02T02:19:22;5.43;;;0.80;;
71769;SDS011;66386;52.122;5.420;2023-02-02T02:34:01;8.05;;;0.90;;
71769;SDS011;66386;52.122;5.420;2023-02-02T02:36:32;6.25;;;1.05;;
71769;SDS011;66386;52.122;5.420;2023-02-02T02:41:39;9.43;;;1.10;;
71769;SDS011;66386;52.122;5.420;2023-02-02T02:44:10;9.73;;;0.80;;
71769;SDS011;66386;52.122;5.420;2023-02-02T02:46:41;9.77;;;1.42;;
71769;SDS011;66386;52.122;5.420;2023-02-02T02:49:10;10.88;;;1.20;;
71769;SDS011;66386;52.122;5.420;2023-02-02T02:51:45;6.85;;;1.05;;
71769;SDS011;66386;52.122;5.420;2023-02-02T02:59:50;11.95;;;1.65;;
71769;SDS011;66386;52.122;5.420;2023-02-02T03:02:52;11.27;;;1.17;;
71769;SDS011;66386;52.122;5.420;2023-02-02T03:10:54;6.73;;;1.87;;
71769;SDS011;66386;52.122;5.420;2023-02-02T03:13:23;13.52;;;1.70;;
71769;SDS011;66386;52.122;5.420;2023-02-02T03:15:52;9.23;;;1.60;;
71769;SDS011;66386;52.122;5.420;2023-02-02T03:18:20;14.65;;;2.75;;
71769;SDS011;66386;52.122;5.420;2023-02-02T03:20:50;11.77;;;1.60;;
71769;SDS011;66386;52.122;5.420;2023-02-02T03:23:16;11.07;;;1.60;;
71769;SDS011;66386;52.122;5.420;2023-02-02T03:25:43;9.57;;;1.48;;
71769;SDS011;66386;52.122;5.420;2023-02-02T03:28:10;8.75;;;1.45;;
71769;SDS011;66386;52.122;5.420;2023-02-02T03:30:37;15.35;;;1.70;;
71769;SDS011;66386;52.122;5.420;2023-02-02T03:33:06;11.30;;;1.13;;
71769;SDS011;66386;52.122;5.420;2023-02-02T03:35:34;10.50;;;1.30;;
71769;SDS011;66386;52.122;5.420;2023-02-02T03:38:01;9.68;;;1.75;;
71769;SDS011;66386;52.122;5.420;2023-02-02T03:40:29;11.00;;;1.95;;
71769;SDS011;66386;52.122;5.420;2023-02-02T03:42:55;17.20;;;1.63;;
71769;SDS011;66386;52.122;5.420;2023-02-02T03:45:22;9.60;;;2.20;;
71769;SDS011;66386;52.122;5.420;2023-02-02T03:47:52;7.27;;;1.70;;
71769;SDS011;66386;52.122;5.420;2023-02-02T03:50:18;14.85;;;2.38;;
71769;SDS011;66386;52.122;5.420;2023-02-02T03:52:45;12.90;;;1.88;;
71769;SDS011;66386;52.122;5.420;2023-02-02T03:55:11;10.65;;;1.45;;
71769;SDS011;66386;52.122;5.420;2023-02-02T03:57:38;8.77;;;1.90;;
71769;SDS011;66386;52.122;5.420;2023-02-02T04:00:04;8.50;;;1.63;;
71769;SDS011;66386;52.122;5.420;2023-02-02T04:02:31;12.93;;;1.88;;
71769;SDS011;66386;52.122;5.420;2023-02-02T04:04:58;13.70;;;2.55;;
71769;SDS011;66386;52.122;5.420;2023-02-02T04:07:24;13.68;;;1.50;;
71769;SDS011;66386;52.122;5.420;2023-02-02T04:09:51;10.18;;;1.80;;
71769;SDS011;66386;52.122;5.420;2023-02-02T04:12:17;9.00;;;1.67;;
71769;SDS011;66386;52.122;5.420;2023-02-02T04:14:44;9.88;;;1.90;;
71769;SDS011;66386;52.122;5.420;2023-02-02T04:17:10;12.43;;;1.85;;
71769;SDS011;66386;52.122;5.420;2023-02-02T04:19:37;16.70;;;1.58;;
71769;SDS011;66386;52.122;5.420;2023-02-02T04:22:03;11.70;;;1.20;;
71769;SDS011;66386;52.122;5.420;2023-02-02T04:24:29;14.00;;;1.30;;
71769;SDS011;66386;52.122;5.420;2023-02-02T04:26:56;9.48;;;1.98;;
71769;SDS011;66386;52.122;5.420;2023-02-02T04:29:23;10.10;;;1.02;;
71769;SDS011;66386;52.122;5.420;2023-02-02T04:31:50;8.48;;;1.50;;
71769;SDS011;66386;52.122;5.420;2023-02-02T04:34:17;12.35;;;1.85;;
71769;SDS011;66386;52.122;5.420;2023-02-02T04:36:43;10.23;;;1.00;;
71769;SDS011;66386;52.122;5.420;2023-02-02T04:39:10;15.73;;;1.40;;
71769;SDS011;66386;52.122;5.420;2023-02-02T04:41:37;10.85;;;1.38;;
71769;SDS011;66386;52.122;5.420;2023-02-02T04:44:04;9.73;;;1.13;;
71769;SDS011;66386;52.122;5.420;2023-02-02T04:46:31;10.20;;;1.20;;
71769;SDS011;66386;52.122;5.420;2023-02-02T04:48:58;14.00;;;1.30;;
71769;SDS011;66386;52.122;5.420;2023-02-02T04:51:24;14.23;;;1.95;;
71769;SDS011;66386;52.122;5.420;2023-02-02T04:53:51;13.07;;;1.50;;
71769;SDS011;66386;52.122;5.420;2023-02-02T04:56:17;15.85;;;1.88;;
71769;SDS011;66386;52.122;5.420;2023-02-02T04:58:44;11.02;;;1.48;;
71769;SDS011;66386;52.122;5.420;2023-02-02T05:01:12;9.60;;;1.07;;
71769;SDS011;66386;52.122;5.420;2023-02-02T05:03:43;10.93;;;1.35;;
71769;SDS011;66386;52.122;5.420;2023-02-02T05:06:10;12.40;;;1.85;;
71769;SDS011;66386;52.122;5.420;2023-02-02T05:08:39;12.18;;;1.48;;
71769;SDS011;66386;52.122;5.420;2023-02-02T05:11:13;11.68;;;1.70;;
71769;SDS011;66386;52.122;5.420;2023-02-02T05:13:45;6.53;;;1.07;;
71769;SDS011;66386;52.122;5.420;2023-02-02T05:16:12;9.70;;;1.67;;
71769;SDS011;66386;52.122;5.420;2023-02-02T05:18:40;10.05;;;1.30;;
71769;SDS011;66386;52.122;5.420;2023-02-02T05:21:07;12.70;;;1.35;;
71769;SDS011;66386;52.122;5.420;2023-02-02T05:23:34;8.95;;;1.38;;
71769;SDS011;66386;52.122;5.420;2023-02-02T05:26:00;27.00;;;2.60;;
71769;SDS011;66386;52.122;5.420;2023-02-02T05:28:27;6.63;;;1.38;;
71769;SDS011;66386;52.122;5.420;2023-02-02T05:30:54;8.65;;;1.55;;
71769;SDS011;66386;52.122;5.420;2023-02-02T05:33:21;11.75;;;1.40;;
71769;SDS011;66386;52.122;5.420;2023-02-02T05:35:47;8.25;;;1.33;;
71769;SDS011;66386;52.122;5.420;2023-02-02T05:38:14;7.17;;;1.03;;
71769;SDS011;66386;52.122;5.420;2023-02-02T05:40:41;7.75;;;1.50;;
71769;SDS011;66386;52.122;5.420;2023-02-02T05:43:07;6.68;;;1.25;;
71769;SDS011;66386;52.122;5.420;2023-02-02T05:45:34;10.25;;;1.35;;
71769;SDS011;66386;52.122;5.420;2023-02-02T05:48:00;14.27;;;1.25;;
71769;SDS011;66386;52.122;5.420;2023-02-02T05:50:26;14.80;;;1.30;;
71769;SDS011;66386;52.122;5.420;2023-02-02T05:52:53;7.55;;;1.20;;
71769;SDS011;66386;52.122;5.420;2023-02-02T05:55:19;9.52;;;1.00;;
71769;SDS011;66386;52.122;5.420;2023-02-02T05:57:46;10.35;;;1.20;;
71769;SDS011;66386;52.122;5.420;2023-02-02T06:00:12;13.88;;;1.52;;
71769;SDS011;66386;52.122;5.420;2023-02-02T06:02:39;7.43;;;1.30;;
71769;SDS011;66386;52.122;5.420;2023-02-02T06:05:06;8.68;;;1.25;;
71769;SDS011;66386;52.122;5.420;2023-02-02T06:07:33;10.40;;;1.83;;
71769;SDS011;66386;52.122;5.420;2023-02-02T06:09:59;7.50;;;1.83;;
71769;SDS011;66386;52.122;5.420;2023-02-02T06:12:26;9.25;;;1.48;;
71769;SDS011;66386;52.122;5.420;2023-02-02T06:14:52;10.97;;;1.50;;
71769;SDS011;66386;52.122;5.420;2023-02-02T06:17:18;6.60;;;1.45;;
71769;SDS011;66386;52.122;5.420;2023-02-02T06:19:45;11.93;;;1.17;;
71769;SDS011;66386;52.122;5.420;2023-02-02T06:22:11;10.35;;;2.20;;
71769;SDS011;66386;52.122;5.420;2023-02-02T06:24:37;5.88;;;1.15;;
71769;SDS011;66386;52.122;5.420;2023-02-02T06:27:04;9.83;;;0.93;;
71769;SDS011;66386;52.122;5.420;2023-02-02T06:29:30;6.00;;;0.82;;
71769;SDS011;66386;52.122;5.420;2023-02-02T06:31:57;11.02;;;0.98;;
71769;SDS011;66386;52.122;5.420;2023-02-02T06:34:24;6.47;;;1.38;;
71769;SDS011;66386;52.122;5.420;2023-02-02T06:36:50;8.75;;;1.05;;
71769;SDS011;66386;52.122;5.420;2023-02-02T06:39:17;12.80;;;1.00;;
71769;SDS011;66386;52.122;5.420;2023-02-02T06:41:43;11.43;;;1.50;;
71769;SDS011;66386;52.122;5.420;2023-02-02T06:44:12;10.57;;;1.70;;
71769;SDS011;66386;52.122;5.420;2023-02-02T06:46:40;12.70;;;1.95;;
71769;SDS011;66386;52.122;5.420;2023-02-02T06:49:07;6.57;;;0.88;;
71769;SDS011;66386;52.122;5.420;2023-02-02T06:51:34;9.93;;;1.40;;
71769;SDS011;66386;52.122;5.420;2023-02-02T06:54:00;5.65;;;0.98;;
71769;SDS011;66386;52.122;5.420;2023-02-02T06:56:28;11.38;;;1.10;;
71769;SDS011;66386;52.122;5.420;2023-02-02T06:58:55;6.43;;;1.05;;
71769;SDS011;66386;52.122;5.420;2023-02-02T07:01:22;10.77;;;2.08;;
71769;SDS011;66386;52.122;5.420;2023-02-02T07:03:48;6.70;;;0.90;;
71769;SDS011;66386;52.122;5.420;2023-02-02T07:06:17;5.38;;;1.05;;
71769;SDS011;66386;52.122;5.420;2023-02-02T07:08:46;9.07;;;1.10;;
71769;SDS011;66386;52.122;5.420;2023-02-02T07:11:27;7.35;;;1.55;;
71769;SDS011;66386;52.122;5.420;2023-02-02T07:13:54;7.25;;;1.65;;
71769;SDS011;66386;52.122;5.420;2023-02-02T07:16:21;10.50;;;1.70;;
71769;SDS011;66386;52.122;5.420;2023-02-02T07:18:48;11.18;;;1.60;;
71769;SDS011;66386;52.122;5.420;2023-02-02T07:21:18;14.88;;;2.10;;
71769;SDS011;66386;52.122;5.420;2023-02-02T07:23:46;9.95;;;1.45;;
71769;SDS011;66386;52.122;5.420;2023-02-02T07:26:13;15.40;;;1.77;;
71769;SDS011;66386;52.122;5.420;2023-02-02T07:28:41;8.00;;;1.23;;
71769;SDS011;66386;52.122;5.420;2023-02-02T07:31:26;11.27;;;1.48;;
71769;SDS011;66386;52.122;5.420;2023-02-02T07:33:53;11.48;;;1.50;;
71769;SDS011;66386;52.122;5.420;2023-02-02T07:36:20;11.07;;;1.60;;
71769;SDS011;66386;52.122;5.420;2023-02-02T07:38:49;13.40;;;2.05;;
71769;SDS011;66386;52.122;5.420;2023-02-02T07:41:23;9.57;;;2.30;;
71769;SDS011;66386;52.122;5.420;2023-02-02T07:43:50;7.65;;;1.23;;
71769;SDS011;66386;52.122;5.420;2023-02-02T07:46:17;9.95;;;1.63;;
71769;SDS011;66386;52.122;5.420;2023-02-02T07:48:44;12.77;;;1.45;;
71769;SDS011;66386;52.122;5.420;2023-02-02T07:51:11;12.10;;;1.50;;
71769;SDS011;66386;52.122;5.420;2023-02-02T07:53:43;17.27;;;2.03;;
71769;SDS011;66386;52.122;5.420;2023-02-02T07:56:13;9.00;;;1.15;;
71769;SDS011;66386;52.122;5.420;2023-02-02T07:58:42;5.78;;;1.05;;
71769;SDS011;66386;52.122;5.420;2023-02-02T08:01:09;10.73;;;1.40;;
71769;SDS011;66386;52.122;5.420;2023-02-02T08:03:38;10.73;;;1.60;;
71769;SDS011;66386;52.122;5.420;2023-02-02T08:06:16;10.57;;;1.23;;
71769;SDS011;66386;52.122;5.420;2023-02-02T08:08:45;8.82;;;1.20;;
71769;SDS011;66386;52.122;5.420;2023-02-02T08:11:13;9.43;;;1.40;;
71769;SDS011;66386;52.122;5.420;2023-02-02T08:13:41;7.63;;;1.20;;
71769;SDS011;66386;52.122;5.420;2023-02-02T08:16:08;8.90;;;1.75;;
71769;SDS011;66386;52.122;5.420;2023-02-02T08:18:36;7.30;;;1.20;;
71769;SDS011;66386;52.122;5.420;2023-02-02T08:21:04;7.78;;;1.50;;
71769;SDS011;66386;52.122;5.420;2023-02-02T08:23:33;12.93;;;1.58;;
71769;SDS011;66386;52.122;5.420;2023-02-02T08:26:21;12.75;;;1.75;;
71769;SDS011;66386;52.122;5.420;2023-02-02T08:28:56;6.90;;;1.15;;
71769;SDS011;66386;52.122;5.420;2023-02-02T08:31:29;8.60;;;1.37;;
71769;SDS011;66386;52.122;5.420;2023-02-02T08:33:57;11.00;;;1.70;;
71769;SDS011;66386;52.122;5.420;2023-02-02T08:36:25;7.70;;;1.05;;
71769;SDS011;66386;52.122;5.420;2023-02-02T08:38:53;7.43;;;1.23;;
71769;SDS011;66386;52.122;5.420;2023-02-02T08:41:20;9.02;;;1.20;;
71769;SDS011;66386;52.122;5.420;2023-02-02T08:43:49;7.03;;;1.87;;
71769;SDS011;66386;52.122;5.420;2023-02-02T08:46:16;8.20;;;1.60;;
71769;SDS011;66386;52.122;5.420;2023-02-02T08:48:44;9.05;;;1.55;;
71769;SDS011;66386;52.122;5.420;2023-02-02T08:51:12;10.38;;;1.52;;
71769;SDS011;66386;52.122;5.420;2023-02-02T08:53:41;11.20;;;1.20;;
71769;SDS011;66386;52.122;5.420;2023-02-02T08:56:12;11.43;;;0.90;;
71769;SDS011;66386;52.122;5.420;2023-02-02T08:58:47;7.20;;;1.05;;
71769;SDS011;66386;52.122;5.420;2023-02-02T09:01:19;10.68;;;1.33;;
71769;SDS011;66386;52.122;5.420;2023-02-02T09:03:51;7.72;;;2.17;;
71769;SDS011;66386;52.122;5.420;2023-02-02T09:06:25;10.98;;;1.50;;
71769;SDS011;66386;52.122;5.420;2023-02-02T09:08:55;8.13;;;1.60;;
71769;SDS011;66386;52.122;5.420;2023-02-02T09:11:22;9.50;;;1.55;;
71769;SDS011;66386;52.122;5.420;2023-02-02T09:13:51;11.23;;;1.42;;
71769;SDS011;66386;52.122;5.420;2023-02-02T09:16:20;9.05;;;1.33;;
71769;SDS011;66386;52.122;5.420;2023-02-02T09:18:46;13.48;;;1.45;;
71769;SDS011;66386;52.122;5.420;2023-02-02T09:21:14;8.97;;;1.07;;
71769;SDS011;66386;52.122;5.420;2023-02-02T09:23:43;10.30;;;2.00;;
71769;SDS011;66386;52.122;5.420;2023-02-02T09:26:31;12.43;;;1.00;;
71769;SDS011;66386;52.122;5.420;2023-02-02T09:28:58;7.97;;;0.95;;
71769;SDS011;66386;52.122;5.420;2023-02-02T09:31:30;8.25;;;1.00;;
71769;SDS011;66386;52.122;5.420;2023-02-02T09:34:03;8.97;;;1.13;;
71769;SDS011;66386;52.122;5.420;2023-02-02T09:36:31;9.15;;;1.23;;
71769;SDS011;66386;52.122;5.420;2023-02-02T09:38:59;7.25;;;1.05;;
71769;SDS011;66386;52.122;5.420;2023-02-02T09:44:07;9.90;;;1.40;;
71769;SDS011;66386;52.122;5.420;2023-02-02T09:46:47;12.57;;;1.17;;
71769;SDS011;66386;52.122;5.420;2023-02-02T09:55:32;13.02;;;1.08;;
71769;SDS011;66386;52.122;5.420;2023-02-02T09:58:07;10.80;;;1.58;;
71769;SDS011;66386;52.122;5.420;2023-02-02T10:00:37;8.77;;;1.90;;
71769;SDS011;66386;52.122;5.420;2023-02-02T10:03:54;12.02;;;1.45;;
71769;SDS011;66386;52.122;5.420;2023-02-02T10:06:13;10.73;;;1.20;;
71769;SDS011;66386;52.122;5.420;2023-02-02T10:09:06;6.50;;;0.90;;
71769;SDS011;66386;52.122;5.420;2023-02-02T10:14:16;11.60;;;1.50;;
71769;SDS011;66386;52.122;5.420;2023-02-02T10:16:48;6.45;;;1.10;;
71769;SDS011;66386;52.122;5.420;2023-02-02T10:19:19;5.25;;;1.20;;
71769;SDS011;66386;52.122;5.420;2023-02-02T10:21:59;9.90;;;1.95;;
71769;SDS011;66386;52.122;5.420;2023-02-02T10:24:35;9.32;;;1.00;;
71769;SDS011;66386;52.122;5.420;2023-02-02T10:27:07;8.77;;;1.67;;
71769;SDS011;66386;52.122;5.420;2023-02-02T10:29:54;6.53;;;1.30;;
71769;SDS011;66386;52.122;5.420;2023-02-02T10:37:41;7.07;;;1.00;;
71769;SDS011;66386;52.122;5.420;2023-02-02T10:46:13;10.38;;;1.45;;
71769;SDS011;66386;52.122;5.420;2023-02-02T10:48:59;6.43;;;1.10;;
71769;SDS011;66386;52.122;5.420;2023-02-02T10:51:34;8.90;;;1.30;;
71769;SDS011;66386;52.122;5.420;2023-02-02T10:54:01;7.67;;;1.87;;
71769;SDS011;66386;52.122;5.420;2023-02-02T10:56:35;6.10;;;1.27;;
71769;SDS011;66386;52.122;5.420;2023-02-02T10:59:06;11.68;;;1.05;;
71769;SDS011;66386;52.122;5.420;2023-02-02T11:01:38;9.70;;;2.28;;
71769;SDS011;66386;52.122;5.420;2023-02-02T11:04:04;9.68;;;1.52;;
71769;SDS011;66386;52.122;5.420;2023-02-02T11:06:50;9.83;;;1.70;;
71769;SDS011;66386;52.122;5.420;2023-02-02T11:09:18;10.07;;;1.15;;
71769;SDS011;66386;52.122;5.420;2023-02-02T11:11:54;11.30;;;1.45;;
71769;SDS011;66386;52.122;5.420;2023-02-02T11:14:50;8.23;;;1.85;;
71769;SDS011;66386;52.122;5.420;2023-02-02T11:17:22;8.55;;;1.13;;
71769;SDS011;66386;52.122;5.420;2023-02-02T11:19:50;9.30;;;1.00;;
71769;SDS011;66386;52.122;5.420;2023-02-02T11:25:00;6.65;;;1.13;;
71769;SDS011;66386;52.122;5.420;2023-02-02T11:27:33;7.32;;;1.27;;
71769;SDS011;66386;52.122;5.420;2023-02-02T11:32:53;6.77;;;1.10;;
71769;SDS011;66386;52.122;5.420;2023-02-02T11:35:24;7.97;;;0.98;;
71769;SDS011;66386;52.122;5.420;2023-02-02T11:37:59;7.28;;;1.00;;
71769;SDS011;66386;52.122;5.420;2023-02-02T11:40:34;5.47;;;0.70;;
71769;SDS011;66386;52.122;5.420;2023-02-02T11:43:14;10.48;;;1.08;;
71769;SDS011;66386;52.122;5.420;2023-02-02T11:46:01;7.87;;;0.97;;
71769;SDS011;66386;52.122;5.420;2023-02-02T11:48:35;11.25;;;0.90;;
71769;SDS011;66386;52.122;5.420;2023-02-02T11:51:04;10.05;;;1.00;;
71769;SDS011;66386;52.122;5.420;2023-02-02T11:53:43;9.48;;;1.13;;
71769;SDS011;66386;52.122;5.420;2023-02-02T11:56:20;9.27;;;0.90;;
71769;SDS011;66386;52.122;5.420;2023-02-02T11:58:49;11.93;;;1.57;;
71769;SDS011;66386;52.122;5.420;2023-02-02T12:01:27;11.63;;;1.00;;
71769;SDS011;66386;52.122;5.420;2023-02-02T12:03:57;12.13;;;1.13;;
71769;SDS011;66386;52.122;5.420;2023-02-02T12:08:58;5.20;;;1.10;;
71769;SDS011;66386;52.122;5.420;2023-02-02T12:11:32;6.37;;;0.87;;
71769;SDS011;66386;52.122;5.420;2023-02-02T12:14:33;6.40;;;0.80;;
71769;SDS011;66386;52.122;5.420;2023-02-02T12:25:26;6.53;;;0.90;;
71769;SDS011;66386;52.122;5.420;2023-02-02T12:30:58;8.98;;;0.85;;
71769;SDS011;66386;52.122;5.420;2023-02-02T12:34:07;11.55;;;1.17;;
71769;SDS011;66386;52.122;5.420;2023-02-02T12:42:51;7.70;;;1.35;;
71769;SDS011;66386;52.122;5.420;2023-02-02T12:45:36;5.65;;;0.50;;
71769;SDS011;66386;52.122;5.420;2023-02-02T12:56:53;6.00;;;1.27;;
71769;SDS011;66386;52.122;5.420;2023-02-02T13:02:35;9.43;;;1.10;;
71769;SDS011;66386;52.122;5.420;2023-02-02T13:08:21;4.63;;;0.40;;
71769;SDS011;66386;52.122;5.420;2023-02-02T13:11:12;6.78;;;1.23;;
71769;SDS011;66386;52.122;5.420;2023-02-02T13:13:57;4.55;;;0.70;;
71769;SDS011;66386;52.122;5.420;2023-02-02T13:16:28;6.07;;;0.90;;
71769;SDS011;66386;52.122;5.420;2023-02-02T13:19:06;2.80;;;0.52;;
71769;SDS011;66386;52.122;5.420;2023-02-02T13:21:38;6.20;;;1.27;;
71769;SDS011;66386;52.122;5.420;2023-02-02T13:24:11;11.82;;;1.52;;
71769;SDS011;66386;52.122;5.420;2023-02-02T13:26:44;14.98;;;1.45;;
71769;SDS011;66386;52.122;5.420;2023-02-02T13:32:24;7.80;;;0.65;;
71769;SDS011;66386;52.122;5.420;2023-02-02T13:37:52;5.57;;;0.98;;
71769;SDS011;66386;52.122;5.420;2023-02-02T13:40:27;7.03;;;1.10;;
71769;SDS011;66386;52.122;5.420;2023-02-02T13:48:56;5.57;;;0.60;;
71769;SDS011;66386;52.122;5.420;2023-02-02T13:59:49;3.17;;;0.50;;
71769;SDS011;66386;52.122;5.420;2023-02-02T14:02:38;3.37;;;0.47;;
71769;SDS011;66386;52.122;5.420;2023-02-02T14:05:19;6.03;;;0.50;;
71769;SDS011;66386;52.122;5.420;2023-02-02T14:07:58;3.92;;;0.70;;
71769;SDS011;66386;52.122;5.420;2023-02-02T14:10:33;0.68;;;0.20;;
71769;SDS011;66386;52.122;5.420;2023-02-02T14:15:58;1.80;;;0.20;;
71769;SDS011;66386;52.122;5.420;2023-02-02T14:31:56;0.95;;;0.30;;
71769;SDS011;66386;52.122;5.420;2023-02-02T14:34:33;0.50;;;0.20;;
71769;SDS011;66386;52.122;5.420;2023-02-02T14:45:30;1.58;;;0.20;;
71769;SDS011;66386;52.122;5.420;2023-02-02T14:48:07;0.40;;;0.10;;
71769;SDS011;66386;52.122;5.420;2023-02-02T14:53:05;0.60;;;0.17;;
71769;SDS011;66386;52.122;5.420;2023-02-02T14:55:48;2.13;;;0.20;;
71769;SDS011;66386;52.122;5.420;2023-02-02T14:58:22;1.58;;;0.40;;
71769;SDS011;66386;52.122;5.420;2023-02-02T15:06:13;1.02;;;0.28;;
71769;SDS011;66386;52.122;5.420;2023-02-02T15:14:37;1.73;;;0.50;;
71769;SDS011;66386;52.122;5.420;2023-02-02T15:26:11;2.20;;;0.80;;
71769;SDS011;66386;52.122;5.420;2023-02-02T15:36:51;3.93;;;1.60;;
71769;SDS011;66386;52.122;5.420;2023-02-02T15:41:53;5.32;;;1.42;;
71769;SDS011;66386;52.122;5.420;2023-02-02T15:44:42;3.55;;;1.70;;
71769;SDS011;66386;52.122;5.420;2023-02-02T15:47:13;4.47;;;1.83;;
71769;SDS011;66386;52.122;5.420;2023-02-02T15:49:42;8.37;;;1.87;;
71769;SDS011;66386;52.122;5.420;2023-02-02T15:52:10;5.20;;;1.40;;
71769;SDS011;66386;52.122;5.420;2023-02-02T15:54:52;3.08;;;1.48;;
71769;SDS011;66386;52.122;5.420;2023-02-02T15:57:34;5.43;;;1.60;;
71769;SDS011;66386;52.122;5.420;2023-02-02T16:00:22;7.93;;;2.20;;
71769;SDS011;66386;52.122;5.420;2023-02-02T16:02:50;6.00;;;1.70;;
71769;SDS011;66386;52.122;5.420;2023-02-02T16:05:24;6.45;;;1.85;;
71769;SDS011;66386;52.122;5.420;2023-02-02T16:08:13;3.33;;;1.10;;
71769;SDS011;66386;52.122;5.420;2023-02-02T16:11:11;2.45;;;1.40;;
71769;SDS011;66386;52.122;5.420;2023-02-02T16:13:40;2.20;;;1.00;;
71769;SDS011;66386;52.122;5.420;2023-02-02T16:19:03;4.88;;;1.42;;
71769;SDS011;66386;52.122;5.420;2023-02-02T16:21:34;5.72;;;1.85;;
71769;SDS011;66386;52.122;5.420;2023-02-02T16:24:04;9.48;;;2.15;;
71769;SDS011;66386;52.122;5.420;2023-02-02T16:26:35;5.45;;;1.80;;
71769;SDS011;66386;52.122;5.420;2023-02-02T16:29:02;6.03;;;2.27;;
71769;SDS011;66386;52.122;5.420;2023-02-02T16:31:30;9.10;;;2.70;;
71769;SDS011;66386;52.122;5.420;2023-02-02T16:33:57;7.00;;;2.47;;
71769;SDS011;66386;52.122;5.420;2023-02-02T16:36:27;8.30;;;2.28;;
71769;SDS011;66386;52.122;5.420;2023-02-02T16:38:55;5.78;;;2.58;;
71769;SDS011;66386;52.122;5.420;2023-02-02T16:41:33;6.50;;;2.40;;
71769;SDS011;66386;52.122;5.420;2023-02-02T16:47:01;7.18;;;2.05;;
71769;SDS011;66386;52.122;5.420;2023-02-02T16:49:28;16.17;;;3.17;;
71769;SDS011;66386;52.122;5.420;2023-02-02T16:54:37;10.20;;;2.77;;
71769;SDS011;66386;52.122;5.420;2023-02-02T16:57:10;9.48;;;3.00;;
71769;SDS011;66386;52.122;5.420;2023-02-02T16:59:44;12.27;;;3.25;;
71769;SDS011;66386;52.122;5.420;2023-02-02T17:04:59;9.57;;;2.70;;
71769;SDS011;66386;52.122;5.420;2023-02-02T17:07:48;7.57;;;2.93;;
71769;SDS011;66386;52.122;5.420;2023-02-02T17:10:24;14.73;;;3.42;;
71769;SDS011;66386;52.122;5.420;2023-02-02T17:12:57;4.80;;;2.53;;
71769;SDS011;66386;52.122;5.420;2023-02-02T17:15:26;9.32;;;2.78;;
71769;SDS011;66386;52.122;5.420;2023-02-02T17:17:54;12.57;;;2.67;;
71769;SDS011;66386;52.122;5.420;2023-02-02T17:20:21;9.73;;;3.17;;
71769;SDS011;66386;52.122;5.420;2023-02-02T17:22:50;10.65;;;2.65;;
71769;SDS011;66386;52.122;5.420;2023-02-02T17:28:00;10.23;;;2.35;;
71769;SDS011;66386;52.122;5.420;2023-02-02T17:30:27;8.43;;;2.40;;
71769;SDS011;66386;52.122;5.420;2023-02-02T17:32:54;5.83;;;1.97;;
71769;SDS011;66386;52.122;5.420;2023-02-02T17:35:22;7.82;;;2.60;;
71769;SDS011;66386;52.122;5.420;2023-02-02T17:37:52;10.50;;;2.45;;
71769;SDS011;66386;52.122;5.420;2023-02-02T17:40:20;8.95;;;2.75;;
71769;SDS011;66386;52.122;5.420;2023-02-02T17:42:49;10.20;;;2.53;;
71769;SDS011;66386;52.122;5.420;2023-02-02T17:47:43;10.07;;;2.50;;
71769;SDS011;66386;52.122;5.420;2023-02-02T17:50:10;7.35;;;2.53;;
71769;SDS011;66386;52.122;5.420;2023-02-02T17:52:37;13.32;;;2.63;;
71769;SDS011;66386;52.122;5.420;2023-02-02T17:57:57;7.90;;;2.50;;
71769;SDS011;66386;52.122;5.420;2023-02-02T18:00:24;8.98;;;2.35;;
71769;SDS011;66386;52.122;5.420;2023-02-02T18:03:16;5.93;;;2.42;;
71769;SDS011;66386;52.122;5.420;2023-02-02T18:05:46;15.25;;;2.92;;
71769;SDS011;66386;52.122;5.420;2023-02-02T18:08:13;7.93;;;3.17;;
71769;SDS011;66386;52.122;5.420;2023-02-02T18:10:40;8.90;;;3.20;;
71769;SDS011;66386;52.122;5.420;2023-02-02T18:13:10;7.57;;;2.95;;
71769;SDS011;66386;52.122;5.420;2023-02-02T18:15:41;12.35;;;2.85;;